createdAt,value
2019-03-27T00:03:01.826Z,85.16
2019-03-27T00:09:19.921Z,85.72
2019-03-27T00:15:39.826Z,86.09
2019-03-27T00:21:58.041Z,86.68
2019-03-27T00:28:28.502Z,86.65
2019-03-27T00:34:11.733Z,86.52
2019-03-27T00:40:30.779Z,87.25
2019-03-27T00:50:25.398Z,86.61
2019-03-27T00:56:43.407Z,87.19
2019-03-27T01:03:01.951Z,88.02
2019-03-27T01:09:35.324Z,88.21
2019-03-27T01:15:53.890Z,87.99
2019-03-27T01:22:15.238Z,88.37
2019-03-27T01:28:45.358Z,89.39
2019-03-27T01:34:42.276Z,89.34
2019-03-27T01:41:00.633Z,89.62
2019-03-27T01:51:06.477Z,89.72
2019-03-27T01:57:24.073Z,89.82
2019-03-27T02:03:11.870Z,90.85
2019-03-27T02:05:43.364Z,90.74
2019-03-27T02:08:15.062Z,90.39
2019-03-27T02:10:46.397Z,90.49
2019-03-27T02:13:17.845Z,90.85
2019-03-27T02:15:49.260Z,91.14
2019-03-27T02:18:20.809Z,91.09
2019-03-27T02:20:52.425Z,91.44
2019-03-27T02:23:23.952Z,91.41
2019-03-27T02:25:55.394Z,91.22
2019-03-27T02:28:28.925Z,91.71
2019-03-27T02:31:00.791Z,92.03
2019-03-27T02:33:32.645Z,91.58
2019-03-27T02:36:04.061Z,91.95
2019-03-27T02:38:35.449Z,92.26
2019-03-27T02:41:06.862Z,92.07
2019-03-27T02:43:39.300Z,92.20
2019-03-27T02:46:23.675Z,91.99
2019-03-27T02:48:44.347Z,92.23
2019-03-27T02:51:16.970Z,92.13
2019-03-27T02:53:48.344Z,92.30
2019-03-27T02:56:19.772Z,92.70
2019-03-27T02:58:51.202Z,92.60
2019-03-27T03:01:22.681Z,92.23
2019-03-27T03:03:54.164Z,91.94
2019-03-27T03:06:25.508Z,91.89
2019-03-27T03:08:56.909Z,92.25
2019-03-27T03:11:28.320Z,92.04
2019-03-27T03:13:59.799Z,92.61
2019-03-27T03:16:42.233Z,92.68
2019-03-27T03:19:04.279Z,92.64
2019-03-27T03:21:35.712Z,92.53
2019-03-27T03:24:07.299Z,92.40
2019-03-27T03:26:38.689Z,92.85
2019-03-27T03:29:10.112Z,92.81
2019-03-27T03:31:41.510Z,92.74
2019-03-27T03:34:13.017Z,92.79
2019-03-27T03:36:45.832Z,92.54
2019-03-27T03:39:17.219Z,92.24
2019-03-27T03:41:48.675Z,92.37
2019-03-27T03:44:20.122Z,92.53
2019-03-27T03:46:59.636Z,92.58
2019-03-27T03:49:24.642Z,92.69
2019-03-27T03:51:57.203Z,92.74
2019-03-27T03:54:31.307Z,92.58
2019-03-27T03:57:06.471Z,92.33
2019-03-27T03:59:40.335Z,92.73
2019-03-27T04:02:13.219Z,92.48
2019-03-27T04:04:46.236Z,92.38
2019-03-27T04:07:17.548Z,92.34
2019-03-27T04:09:48.976Z,92.33
2019-03-27T04:12:20.409Z,92.12
2019-03-27T04:14:51.785Z,91.93
2019-03-27T04:17:26.104Z,91.98
2019-03-27T04:19:57.514Z,91.71
2019-03-27T04:22:28.913Z,91.39
2019-03-27T04:25:01.198Z,91.72
2019-03-27T04:27:32.588Z,91.71
2019-03-27T04:30:04.645Z,91.49
2019-03-27T04:32:36.041Z,91.69
2019-03-27T04:35:07.667Z,91.86
2019-03-27T04:37:39.048Z,91.86
2019-03-27T04:40:10.477Z,91.71
2019-03-27T04:42:41.874Z,91.65
2019-03-27T04:45:13.611Z,91.36
2019-03-27T04:47:47.141Z,91.24
2019-03-27T04:50:18.535Z,91.23
2019-03-27T04:52:50.581Z,91.23
2019-03-27T04:55:22.007Z,91.25
2019-03-27T04:57:53.398Z,90.80
2019-03-27T05:00:24.878Z,90.68
2019-03-27T05:02:56.414Z,91.06
2019-03-27T05:05:27.973Z,91.02
2019-03-27T05:07:59.939Z,90.99
2019-03-27T05:10:31.335Z,90.91
2019-03-27T05:13:02.685Z,91.21
2019-03-27T05:15:34.144Z,91.29
2019-03-27T05:18:05.511Z,91.01
2019-03-27T05:20:36.925Z,91.15
2019-03-27T05:23:08.468Z,91.29
2019-03-27T05:25:40.035Z,91.37
2019-03-27T05:28:11.606Z,91.47
2019-03-27T05:30:43.049Z,91.44
2019-03-27T05:33:15.530Z,91.55
2019-03-27T05:35:47.089Z,91.67
2019-03-27T05:38:21.383Z,91.53
2019-03-27T05:40:52.880Z,91.62
2019-03-27T05:43:24.367Z,91.56
2019-03-27T05:45:55.792Z,91.75
2019-03-27T05:48:30.413Z,91.72
2019-03-27T05:51:02.490Z,91.73
2019-03-27T05:53:33.839Z,91.96
2019-03-27T05:56:05.285Z,91.92
2019-03-27T05:58:36.740Z,92.09
2019-03-27T06:01:08.249Z,92.18
2019-03-27T06:03:42.359Z,92.40
2019-03-27T06:06:13.995Z,92.42
2019-03-27T06:08:45.873Z,92.81
2019-03-27T06:11:17.303Z,92.99
2019-03-27T06:13:48.700Z,92.89
2019-03-27T06:16:20.139Z,93.02
2019-03-27T06:18:57.594Z,93.01
2019-03-27T06:21:29.021Z,92.89
2019-03-27T06:24:00.442Z,92.93
2019-03-27T06:26:31.916Z,93.25
2019-03-27T06:29:03.319Z,93.56
2019-03-27T06:31:34.738Z,93.81
2019-03-27T06:34:08.892Z,93.79
2019-03-27T06:36:40.336Z,93.57
2019-03-27T06:39:11.730Z,93.58
2019-03-27T06:41:43.115Z,93.69
2019-03-27T06:44:14.535Z,93.86
2019-03-27T06:46:45.912Z,94.00
2019-03-27T06:49:17.344Z,94.10
2019-03-27T06:51:48.721Z,94.42
2019-03-27T06:54:20.058Z,94.48
2019-03-27T06:56:51.608Z,94.32
2019-03-27T06:59:25.252Z,94.41
2019-03-27T07:01:56.841Z,94.76
2019-03-27T07:04:28.273Z,94.65
2019-03-27T07:06:59.735Z,94.24
2019-03-27T07:09:31.125Z,94.25
2019-03-27T07:12:02.574Z,94.27
2019-03-27T07:14:33.956Z,94.48
2019-03-27T07:17:05.352Z,94.65
2019-03-27T07:19:36.737Z,94.81
2019-03-27T07:22:08.103Z,94.87
2019-03-27T07:24:39.480Z,94.87
2019-03-27T07:27:12.218Z,94.92
2019-03-27T07:29:43.596Z,94.93
2019-03-27T07:32:15.044Z,94.89
2019-03-27T07:34:46.430Z,94.80
2019-03-27T07:37:17.878Z,94.95
2019-03-27T07:39:49.345Z,94.83
2019-03-27T07:42:20.765Z,94.64
2019-03-27T07:44:52.123Z,94.66
2019-03-27T07:47:23.540Z,94.59
2019-03-27T07:49:54.926Z,94.51
2019-03-27T07:52:26.331Z,93.94
2019-03-27T07:54:57.723Z,93.70
2019-03-27T07:57:29.184Z,93.41
2019-03-27T08:00:00.529Z,93.37
2019-03-27T08:02:31.901Z,93.12
2019-03-27T08:05:03.287Z,93.31
2019-03-27T08:07:35.966Z,93.42
2019-03-27T08:10:08.340Z,93.52
2019-03-27T08:12:39.737Z,93.67
2019-03-27T08:15:11.755Z,93.55
2019-03-27T08:17:43.152Z,93.75
2019-03-27T08:20:15.094Z,94.38
2019-03-27T08:22:46.533Z,94.26
2019-03-27T08:25:17.930Z,93.83
2019-03-27T08:27:49.419Z,93.40
2019-03-27T08:30:21.007Z,92.86
2019-03-27T08:32:52.508Z,92.61
2019-03-27T08:35:25.422Z,92.57
2019-03-27T08:37:57.512Z,92.12
2019-03-27T08:40:31.138Z,91.80
2019-03-27T08:43:02.665Z,91.76
2019-03-27T08:45:34.073Z,91.41
2019-03-27T08:48:05.734Z,90.37
2019-03-27T08:50:37.171Z,89.43
2019-03-27T08:53:08.609Z,88.62
2019-03-27T08:55:40.006Z,88.33
2019-03-27T08:58:11.403Z,87.89
2019-03-27T09:00:53.335Z,87.32
2019-03-27T09:03:24.867Z,86.83
2019-03-27T09:05:56.234Z,85.98
2019-03-27T09:08:27.684Z,85.83
2019-03-27T09:11:04.540Z,85.29
2019-03-27T09:13:37.721Z,85.12
2019-03-27T09:16:09.079Z,84.74
2019-03-27T09:18:40.505Z,84.39
2019-03-27T09:21:11.857Z,84.22
2019-03-27T09:23:46.172Z,83.53
2019-03-27T09:26:17.564Z,83.46
2019-03-27T09:28:48.973Z,82.17
2019-03-27T09:31:20.383Z,81.46
2019-03-27T09:33:51.833Z,79.31
2019-03-27T09:36:23.203Z,80.11
2019-03-27T09:38:55.896Z,80.23
2019-03-27T09:41:27.235Z,79.73
2019-03-27T09:44:00.730Z,77.06
2019-03-27T09:46:32.103Z,75.47
2019-03-27T09:49:03.515Z,74.98
2019-03-27T09:51:36.781Z,75.35
2019-03-27T09:54:08.198Z,75.28
2019-03-27T09:56:39.526Z,75.45
2019-03-27T09:59:11.067Z,74.73
2019-03-27T10:01:42.439Z,72.55
2019-03-27T10:04:13.899Z,72.87
2019-03-27T10:06:45.337Z,72.65
2019-03-27T10:09:16.755Z,70.37
2019-03-27T10:11:48.196Z,70.62
2019-03-27T10:14:19.609Z,70.35
2019-03-27T10:16:50.982Z,70.84
2019-03-27T10:19:23.557Z,71.03
2019-03-27T10:21:54.929Z,68.02
2019-03-27T10:24:26.374Z,68.53
2019-03-27T10:26:57.782Z,69.05
2019-03-27T10:29:29.207Z,69.04
2019-03-27T10:32:00.587Z,68.68
2019-03-27T10:34:32.950Z,69.03
2019-03-27T10:37:04.352Z,69.01
2019-03-27T10:39:35.818Z,69.43
2019-03-27T10:42:07.349Z,69.52
2019-03-27T10:44:38.747Z,69.17
2019-03-27T10:47:10.243Z,67.63
2019-03-27T10:49:41.708Z,65.67
2019-03-27T10:52:14.573Z,63.14
2019-03-27T10:54:45.968Z,63.79
2019-03-27T10:57:17.315Z,63.83
2019-03-27T10:59:48.771Z,64.63
2019-03-27T11:02:20.126Z,64.69
2019-03-27T11:04:51.583Z,64.27
2019-03-27T11:07:22.951Z,64.52
2019-03-27T11:09:54.422Z,64.79
2019-03-27T11:12:27.315Z,65.21
2019-03-27T11:14:58.711Z,65.15
2019-03-27T11:17:30.066Z,65.18
2019-03-27T11:20:02.982Z,64.00
2019-03-27T11:22:35.805Z,63.49
2019-03-27T11:25:07.722Z,62.25
2019-03-27T11:27:39.082Z,62.66
2019-03-27T11:30:11.486Z,63.79
2019-03-27T11:32:42.817Z,64.06
2019-03-27T11:35:14.370Z,64.15
2019-03-27T11:37:45.725Z,63.86
2019-03-27T11:40:20.278Z,63.18
2019-03-27T11:42:51.620Z,63.41
2019-03-27T11:45:23.007Z,63.78
2019-03-27T11:47:54.421Z,63.52
2019-03-27T11:50:25.834Z,62.11
2019-03-27T11:52:57.226Z,63.28
2019-03-27T11:55:28.603Z,63.45
2019-03-27T11:57:59.941Z,63.75
2019-03-27T12:00:31.426Z,62.87
2019-03-27T12:03:02.797Z,62.83
2019-03-27T12:05:34.242Z,62.45
2019-03-27T12:08:05.648Z,63.24
2019-03-27T12:10:37.091Z,62.89
2019-03-27T12:13:08.480Z,62.47
2019-03-27T12:15:41.956Z,60.98
2019-03-27T12:18:15.526Z,60.89
2019-03-27T12:20:58.166Z,60.89
2019-03-27T12:23:20.453Z,59.92
2019-03-27T12:25:55.048Z,60.34
2019-03-27T12:28:24.976Z,60.95
2019-03-27T12:30:56.595Z,60.85
2019-03-27T12:33:27.987Z,60.52
2019-03-27T12:35:59.409Z,58.52
2019-03-27T12:38:30.819Z,58.55
2019-03-27T12:41:02.198Z,59.05
2019-03-27T12:43:33.623Z,58.51
2019-03-27T12:46:06.487Z,57.82
2019-03-27T12:48:37.891Z,57.18
2019-03-27T12:51:13.033Z,57.45
2019-03-27T12:53:42.412Z,57.98
2019-03-27T12:56:13.887Z,57.41
2019-03-27T12:58:45.311Z,56.00
2019-03-27T13:01:16.763Z,56.29
2019-03-27T13:03:48.203Z,56.29
2019-03-27T13:06:19.649Z,56.09
2019-03-27T13:08:51.073Z,56.20
2019-03-27T13:11:23.948Z,57.40
2019-03-27T13:13:55.373Z,56.49
2019-03-27T13:16:26.789Z,55.35
2019-03-27T13:19:00.480Z,55.47
2019-03-27T13:21:31.822Z,56.02
2019-03-27T13:24:03.267Z,56.25
2019-03-27T13:26:34.747Z,56.33
2019-03-27T13:29:06.116Z,55.75
2019-03-27T13:31:37.579Z,56.13
2019-03-27T13:34:08.970Z,56.21
2019-03-27T13:36:45.629Z,56.93
2019-03-27T13:39:16.976Z,57.00
2019-03-27T13:41:48.392Z,55.96
2019-03-27T13:44:21.366Z,54.92
2019-03-27T13:46:52.772Z,55.88
2019-03-27T13:49:24.166Z,55.97
2019-03-27T13:51:55.548Z,55.90
2019-03-27T13:54:27.047Z,54.92
2019-03-27T13:56:58.742Z,54.78
2019-03-27T13:59:31.439Z,54.45
2019-03-27T14:02:02.866Z,54.22
2019-03-27T14:04:34.367Z,53.74
2019-03-27T14:07:05.906Z,53.88
2019-03-27T14:09:38.487Z,53.75
2019-03-27T14:12:09.902Z,54.25
2019-03-27T14:14:50.404Z,54.53
2019-03-27T14:17:15.708Z,54.26
2019-03-27T14:19:47.155Z,53.51
2019-03-27T14:22:18.546Z,53.96
2019-03-27T14:24:49.965Z,53.53
2019-03-27T14:27:21.358Z,52.79
2019-03-27T14:29:52.833Z,53.04
2019-03-27T14:32:24.190Z,52.79
2019-03-27T14:34:55.605Z,53.28
2019-03-27T14:37:26.980Z,52.43
2019-03-27T14:39:58.482Z,52.48
2019-03-27T14:42:29.865Z,51.95
2019-03-27T14:45:01.331Z,51.94
2019-03-27T14:47:32.689Z,51.88
2019-03-27T14:50:04.295Z,51.75
2019-03-27T14:52:35.715Z,51.88
2019-03-27T14:55:08.438Z,51.72
2019-03-27T14:57:40.206Z,51.07
2019-03-27T15:00:12.630Z,51.09
2019-03-27T15:02:44.031Z,51.95
2019-03-27T15:05:15.557Z,52.63
2019-03-27T15:07:47.061Z,52.41
2019-03-27T15:10:18.486Z,52.57
2019-03-27T15:12:49.943Z,53.25
2019-03-27T15:15:21.377Z,53.55
2019-03-27T15:17:53.384Z,53.77
2019-03-27T15:20:25.438Z,54.49
2019-03-27T15:22:56.870Z,53.62
2019-03-27T15:25:28.237Z,53.52
2019-03-27T15:27:59.704Z,53.34
2019-03-27T15:30:32.779Z,53.69
2019-03-27T15:33:08.684Z,53.73
2019-03-27T15:35:40.096Z,54.95
2019-03-27T15:38:11.615Z,52.95
2019-03-27T15:40:47.824Z,53.08
2019-03-27T15:43:19.224Z,52.68
2019-03-27T15:45:50.623Z,52.54
2019-03-27T15:48:21.974Z,53.08
2019-03-27T15:50:58.776Z,52.86
2019-03-27T15:53:28.157Z,52.56
2019-03-27T15:55:59.618Z,51.95
2019-03-27T15:58:31.021Z,51.31
2019-03-27T16:01:02.480Z,51.44
2019-03-27T16:03:33.907Z,52.53
2019-03-27T16:06:05.346Z,53.19
2019-03-27T16:08:36.665Z,52.75
2019-03-27T16:11:08.148Z,53.11
2019-03-27T16:13:39.584Z,53.04
2019-03-27T16:16:11.978Z,52.85
2019-03-27T16:18:44.760Z,52.81
2019-03-27T16:21:19.146Z,52.12
2019-03-27T16:23:50.619Z,52.70
2019-03-27T16:26:22.619Z,52.91
2019-03-27T16:28:55.537Z,52.56
2019-03-27T16:31:26.939Z,52.71
2019-03-27T16:34:01.580Z,53.60
2019-03-27T16:36:33.756Z,53.39
2019-03-27T16:39:06.118Z,53.18
2019-03-27T16:41:37.607Z,53.21
2019-03-27T16:44:09.011Z,53.49
2019-03-27T16:46:40.598Z,54.18
2019-03-27T16:49:14.843Z,54.36
2019-03-27T16:51:48.342Z,54.98
2019-03-27T16:54:19.760Z,54.92
2019-03-27T16:56:51.270Z,55.49
2019-03-27T16:59:22.678Z,55.00
2019-03-27T17:01:59.952Z,54.69
2019-03-27T17:04:31.561Z,55.52
2019-03-27T17:07:02.999Z,55.17
2019-03-27T17:09:34.422Z,55.62
2019-03-27T17:12:05.843Z,55.46
2019-03-27T17:14:37.384Z,55.87
2019-03-27T17:17:11.938Z,56.01
2019-03-27T17:19:44.172Z,56.38
2019-03-27T17:22:19.691Z,56.58
2019-03-27T17:24:50.071Z,57.71
2019-03-27T17:27:22.842Z,57.32
2019-03-27T17:29:54.260Z,57.74
2019-03-27T17:32:25.690Z,58.08
2019-03-27T17:34:57.090Z,58.74
2019-03-27T17:37:28.524Z,58.00
2019-03-27T17:39:59.925Z,58.08
2019-03-27T17:42:32.635Z,59.90
2019-03-27T17:45:04.014Z,60.63
2019-03-27T17:47:35.448Z,60.96
2019-03-27T17:50:08.317Z,61.36
2019-03-27T17:52:39.713Z,61.66
2019-03-27T17:55:11.401Z,62.63
2019-03-27T17:57:42.884Z,63.78
2019-03-27T18:00:21.456Z,64.04
2019-03-27T18:02:52.887Z,64.59
2019-03-27T18:05:24.306Z,65.27
2019-03-27T18:07:55.795Z,65.50
2019-03-27T18:10:27.203Z,66.06
2019-03-27T18:12:58.680Z,66.58
2019-03-27T18:15:30.136Z,66.22
2019-03-27T18:18:01.569Z,66.16
2019-03-27T18:20:36.057Z,66.70
2019-03-27T18:23:07.517Z,67.45
2019-03-27T18:25:38.881Z,67.72
2019-03-27T18:28:13.310Z,68.35
2019-03-27T18:30:45.873Z,68.70
2019-03-27T18:33:17.290Z,68.42
2019-03-27T18:35:48.667Z,68.91
2019-03-27T18:38:20.085Z,69.24
2019-03-27T18:40:51.540Z,69.09
2019-03-27T18:43:23.009Z,69.53
2019-03-27T18:45:54.381Z,69.81
2019-03-27T18:48:25.794Z,69.57
2019-03-27T18:50:57.255Z,70.05
2019-03-27T18:53:30.674Z,70.50
2019-03-27T18:56:02.180Z,70.45
2019-03-27T18:58:33.547Z,70.91
2019-03-27T19:01:05.187Z,71.33
2019-03-27T19:03:36.625Z,72.14
2019-03-27T19:06:09.279Z,72.72
2019-03-27T19:08:40.664Z,73.85
2019-03-27T19:11:12.073Z,73.75
2019-03-27T19:13:43.547Z,73.54
2019-03-27T19:16:14.989Z,73.30
2019-03-27T19:18:46.507Z,73.47
2019-03-27T19:21:17.870Z,73.98
2019-03-27T19:23:49.292Z,73.57
2019-03-27T19:26:20.724Z,74.43
2019-03-27T19:29:01.942Z,75.01
2019-03-27T19:31:33.324Z,75.18
2019-03-27T19:34:04.787Z,75.34
2019-03-27T19:36:36.149Z,75.96
2019-03-27T19:39:10.307Z,76.37
2019-03-27T19:41:43.920Z,76.07
2019-03-27T19:44:15.389Z,75.93
2019-03-27T19:46:46.740Z,76.96
2019-03-27T19:49:18.226Z,77.28
2019-03-27T19:51:49.758Z,77.34
2019-03-27T19:54:27.108Z,77.47
2019-03-27T19:56:54.359Z,77.93
2019-03-27T19:59:25.809Z,77.83
2019-03-27T20:02:00.251Z,78.27
2019-03-27T20:04:31.675Z,78.25
2019-03-27T20:07:04.410Z,78.15
2019-03-27T20:09:35.974Z,78.39
2019-03-27T20:12:07.342Z,79.33
2019-03-27T20:14:38.839Z,80.10
2019-03-27T20:17:10.221Z,80.05
2019-03-27T20:19:41.714Z,79.76
2019-03-27T20:22:15.456Z,79.88
2019-03-27T20:24:46.900Z,79.69
2019-03-27T20:27:18.414Z,79.50
2019-03-27T20:29:49.835Z,79.75
2019-03-27T20:32:21.272Z,79.96
2019-03-27T20:34:54.547Z,80.16
2019-03-27T20:37:25.994Z,80.66
2019-03-27T20:39:57.449Z,80.90
2019-03-27T20:42:30.069Z,81.64
2019-03-27T20:45:03.537Z,81.08
2019-03-27T20:47:35.018Z,81.10
2019-03-27T20:50:07.204Z,81.45
2019-03-27T20:52:38.650Z,82.06
2019-03-27T20:55:11.462Z,82.27
2019-03-27T20:57:42.873Z,82.22
2019-03-27T21:00:14.906Z,82.09
2019-03-27T21:02:46.235Z,81.82
2019-03-27T21:05:17.626Z,82.26
2019-03-27T21:07:50.494Z,82.14
2019-03-27T21:10:21.904Z,83.00
2019-03-27T21:12:53.345Z,83.13
2019-03-27T21:15:24.763Z,83.10
2019-03-27T21:17:56.313Z,83.06
2019-03-27T21:20:27.748Z,82.73
2019-03-27T21:22:59.156Z,83.08
2019-03-27T21:25:30.518Z,83.43
2019-03-27T21:28:01.962Z,83.62
2019-03-27T21:30:35.376Z,83.53
2019-03-27T21:33:09.414Z,83.61
2019-03-27T21:35:40.903Z,83.91
2019-03-27T21:38:19.338Z,84.11
2019-03-27T21:40:50.824Z,84.20
2019-03-27T21:43:22.201Z,84.21
2019-03-27T21:45:53.781Z,84.09
2019-03-27T21:48:25.219Z,84.01
2019-03-27T21:50:56.653Z,84.24
2019-03-27T21:53:28.093Z,84.60
2019-03-27T21:55:59.500Z,84.84
2019-03-27T21:58:30.935Z,85.26
2019-03-27T22:01:02.594Z,85.11
2019-03-27T22:03:35.501Z,85.02
2019-03-27T22:06:06.905Z,84.95
2019-03-27T22:08:39.740Z,85.08
2019-03-27T22:11:13.207Z,85.67
2019-03-27T22:13:44.377Z,86.63
2019-03-27T22:16:15.819Z,85.81
2019-03-27T22:18:47.255Z,85.76
2019-03-27T22:21:18.716Z,85.48
2019-03-27T22:23:50.182Z,85.85
2019-03-27T22:26:21.624Z,86.72
2019-03-27T22:28:55.343Z,86.35
2019-03-27T22:31:26.777Z,86.22
2019-03-27T22:33:59.104Z,86.22
2019-03-27T22:36:30.526Z,87.07
2019-03-27T22:39:01.915Z,86.73
2019-03-27T22:41:33.385Z,86.67
2019-03-27T22:44:05.561Z,86.83
2019-03-27T22:46:36.981Z,86.62
2019-03-27T22:49:08.379Z,86.75
2019-03-27T22:51:39.793Z,87.19
2019-03-27T22:54:11.214Z,87.39
2019-03-27T22:56:42.749Z,87.05
2019-03-27T22:59:14.179Z,86.96
2019-03-27T23:01:48.144Z,86.82
2019-03-27T23:04:20.246Z,86.95
2019-03-27T23:06:54.508Z,87.08
2019-03-27T23:09:25.903Z,87.48
2019-03-27T23:11:57.381Z,87.15
2019-03-27T23:14:28.782Z,87.36
2019-03-27T23:17:00.204Z,87.14
2019-03-27T23:19:31.664Z,87.03
2019-03-27T23:22:03.164Z,87.13
2019-03-27T23:24:35.210Z,87.85
2019-03-27T23:27:06.610Z,87.99
2019-03-27T23:29:38.036Z,87.82
2019-03-27T23:32:12.700Z,87.86
2019-03-27T23:34:46.810Z,88.09
2019-03-27T23:37:18.209Z,87.95
2019-03-27T23:39:50.197Z,88.60
2019-03-27T23:42:21.669Z,88.98
2019-03-27T23:44:53.028Z,88.96
2019-03-27T23:47:26.947Z,88.87
2019-03-27T23:49:58.298Z,88.79
2019-03-27T23:52:29.749Z,88.97
2019-03-27T23:55:01.145Z,89.16
2019-03-27T23:57:32.536Z,88.98
